createdAt,value
2022-10-27T00:03:54.122Z,100
2022-10-27T00:18:34.876Z,100
2022-10-27T00:33:10.987Z,100
2022-10-27T00:47:47.365Z,100
2022-10-27T01:02:18.353Z,100
2022-10-27T01:16:52.882Z,100
2022-10-27T01:31:26.287Z,100
2022-10-27T01:46:00.908Z,100
2022-10-27T02:00:33.234Z,100
2022-10-27T02:15:08.376Z,100
2022-10-27T02:29:48.223Z,100
2022-10-27T02:44:25.886Z,100
2022-10-27T02:58:54.870Z,100
2022-10-27T03:13:29.536Z,100
2022-10-27T03:28:02.711Z,100
2022-10-27T03:42:35.630Z,100
2022-10-27T03:57:15.032Z,100
2022-10-27T04:11:52.380Z,100
2022-10-27T04:26:23.709Z,100
2022-10-27T04:41:05.031Z,100
2022-10-27T04:55:42.301Z,100
2022-10-27T05:10:12.937Z,100
2022-10-27T05:24:47.434Z,100
2022-10-27T05:39:27.734Z,100
2022-10-27T05:54:06.682Z,100
2022-10-27T06:08:42.647Z,100
2022-10-27T06:23:18.695Z,100
2022-10-27T06:37:50.970Z,100
2022-10-27T06:52:30.979Z,100
2022-10-27T07:07:10.753Z,100
2022-10-27T07:21:42.213Z,100
2022-10-27T07:36:16.701Z,100
2022-10-27T07:50:51.754Z,100
2022-10-27T08:05:28.550Z,100
2022-10-27T08:20:03.277Z,100
2022-10-27T08:34:38.564Z,100
2022-10-27T08:49:15.762Z,100
2022-10-27T09:03:53.696Z,98.8
2022-10-27T09:18:39.312Z,80.5
2022-10-27T09:33:17.637Z,77.7
2022-10-27T09:47:46.237Z,80.9
2022-10-27T10:02:20.356Z,80.6
2022-10-27T10:16:55.177Z,79.7
2022-10-27T10:31:31.141Z,78.1
2022-10-27T10:46:04.950Z,76
2022-10-27T11:00:39.579Z,74.3
2022-10-27T11:15:15.325Z,74.7
2022-10-27T11:29:52.241Z,72.2
2022-10-27T11:44:28.735Z,72.5
2022-10-27T11:59:03.186Z,72.3
2022-10-27T12:13:38.633Z,72.6
2022-10-27T12:42:48.105Z,69.6
2022-10-27T12:57:23.598Z,66.8
2022-10-27T13:12:03.867Z,70.1
2022-10-27T13:26:34.150Z,70.7
2022-10-27T13:41:14.835Z,70.5
2022-10-27T13:55:46.011Z,70.5
2022-10-27T14:10:21.221Z,70.1
2022-10-27T14:24:52.441Z,69.9
2022-10-27T14:39:26.564Z,71
2022-10-27T14:54:00.871Z,71.4
2022-10-27T15:08:34.849Z,72.7
2022-10-27T15:23:07.398Z,74.8
2022-10-27T15:37:41.035Z,76
2022-10-27T15:52:15.551Z,78.2
2022-10-27T16:06:50.022Z,78.6
2022-10-27T16:21:23.679Z,88.5
2022-10-27T16:35:57.209Z,90.2
2022-10-27T16:50:33.296Z,89
2022-10-27T17:05:09.113Z,87.6
2022-10-27T17:19:42.460Z,84.2
2022-10-27T17:34:17.348Z,83.8
2022-10-27T17:48:52.234Z,83.6
2022-10-27T18:03:24.961Z,82.2
2022-10-27T18:18:00.923Z,82.8
2022-10-27T18:32:34.143Z,85.2
2022-10-27T18:47:06.523Z,84.6
2022-10-27T19:01:39.687Z,89.3
2022-10-27T19:16:14.725Z,88.9
2022-10-27T19:30:48.296Z,89.5
2022-10-27T19:45:27.649Z,94.3
2022-10-27T20:00:08.336Z,96.9
2022-10-27T20:14:33.724Z,95.7
2022-10-27T20:29:08.177Z,98.4
2022-10-27T20:43:42.283Z,97.4
2022-10-27T20:58:16.227Z,99.8
2022-10-27T21:12:48.855Z,100
2022-10-27T21:27:23.143Z,100
2022-10-27T21:41:57.032Z,100
2022-10-27T21:56:32.326Z,100
2022-10-27T22:11:13.527Z,100
2022-10-27T22:25:50.058Z,99.6
2022-10-27T22:40:20.681Z,100
2022-10-27T22:54:54.229Z,100
2022-10-27T23:09:27.655Z,100
2022-10-27T23:24:01.858Z,100
2022-10-27T23:38:37.008Z,100
2022-10-27T23:53:11.503Z,100
